sensor_id;sensor_type;location;lat;lon;timestamp;P1;durP1;ratioP1;P2;durP2;ratioP2
16119;SDS011;12670;53.502;10.252;2023-02-14T00:01:08;36.07;;;17.63;;
16119;SDS011;12670;53.502;10.252;2023-02-14T00:04:12;35.63;;;16.53;;
16119;SDS011;12670;53.502;10.252;2023-02-14T00:07:17;38.60;;;18.10;;
16119;SDS011;12670;53.502;10.252;2023-02-14T00:10:19;38.40;;;17.70;;
16119;SDS011;12670;53.502;10.252;2023-02-14T00:13:22;40.03;;;18.20;;
16119;SDS011;12670;53.502;10.252;2023-02-14T00:16:24;39.10;;;17.50;;
16119;SDS011;12670;53.502;10.252;2023-02-14T00:19:26;40.03;;;18.10;;
16119;SDS011;12670;53.502;10.252;2023-02-14T00:22:30;39.20;;;18.00;;
16119;SDS011;12670;53.502;10.252;2023-02-14T00:25:33;43.83;;;17.97;;
16119;SDS011;12670;53.502;10.252;2023-02-14T00:28:36;36.37;;;17.23;;
16119;SDS011;12670;53.502;10.252;2023-02-14T00:31:39;38.00;;;18.27;;
16119;SDS011;12670;53.502;10.252;2023-02-14T00:34:42;40.97;;;18.00;;
16119;SDS011;12670;53.502;10.252;2023-02-14T00:41:10;41.40;;;16.83;;
16119;SDS011;12670;53.502;10.252;2023-02-14T00:44:19;36.83;;;17.20;;
16119;SDS011;12670;53.502;10.252;2023-02-14T00:47:22;36.50;;;17.77;;
16119;SDS011;12670;53.502;10.252;2023-02-14T00:50:24;38.37;;;17.50;;
16119;SDS011;12670;53.502;10.252;2023-02-14T00:53:28;37.57;;;17.70;;
16119;SDS011;12670;53.502;10.252;2023-02-14T01:00:28;36.77;;;17.20;;
16119;SDS011;12670;53.502;10.252;2023-02-14T01:03:31;37.63;;;17.03;;
16119;SDS011;12670;53.502;10.252;2023-02-14T01:06:34;37.47;;;17.03;;
16119;SDS011;12670;53.502;10.252;2023-02-14T01:09:38;38.43;;;17.70;;
16119;SDS011;12670;53.502;10.252;2023-02-14T01:12:41;38.13;;;17.00;;
16119;SDS011;12670;53.502;10.252;2023-02-14T01:15:44;39.53;;;18.13;;
16119;SDS011;12670;53.502;10.252;2023-02-14T01:19:42;35.50;;;16.73;;
16119;SDS011;12670;53.502;10.252;2023-02-14T01:30:42;36.23;;;17.50;;
16119;SDS011;12670;53.502;10.252;2023-02-14T01:33:45;39.23;;;17.97;;
16119;SDS011;12670;53.502;10.252;2023-02-14T01:36:49;37.93;;;18.40;;
16119;SDS011;12670;53.502;10.252;2023-02-14T01:39:52;41.00;;;18.70;;
16119;SDS011;12670;53.502;10.252;2023-02-14T01:42:54;39.70;;;18.07;;
16119;SDS011;12670;53.502;10.252;2023-02-14T01:45:58;41.43;;;17.37;;
16119;SDS011;12670;53.502;10.252;2023-02-14T01:49:02;35.07;;;16.83;;
16119;SDS011;12670;53.502;10.252;2023-02-14T01:52:10;42.30;;;18.77;;
16119;SDS011;12670;53.502;10.252;2023-02-14T01:55:16;37.60;;;17.33;;
16119;SDS011;12670;53.502;10.252;2023-02-14T01:58:23;41.37;;;17.97;;
16119;SDS011;12670;53.502;10.252;2023-02-14T02:01:38;36.90;;;16.70;;
16119;SDS011;12670;53.502;10.252;2023-02-14T02:04:43;39.63;;;17.77;;
16119;SDS011;12670;53.502;10.252;2023-02-14T02:07:48;37.30;;;17.53;;
16119;SDS011;12670;53.502;10.252;2023-02-14T02:10:51;41.53;;;18.03;;
16119;SDS011;12670;53.502;10.252;2023-02-14T02:13:54;39.50;;;17.97;;
16119;SDS011;12670;53.502;10.252;2023-02-14T02:17:10;38.03;;;17.70;;
16119;SDS011;12670;53.502;10.252;2023-02-14T02:20:35;39.10;;;17.83;;
16119;SDS011;12670;53.502;10.252;2023-02-14T02:23:56;40.90;;;17.97;;
16119;SDS011;12670;53.502;10.252;2023-02-14T02:27:18;38.43;;;18.00;;
16119;SDS011;12670;53.502;10.252;2023-02-14T02:30:44;40.03;;;16.83;;
16119;SDS011;12670;53.502;10.252;2023-02-14T02:34:14;39.40;;;17.57;;
16119;SDS011;12670;53.502;10.252;2023-02-14T02:37:37;39.30;;;18.30;;
16119;SDS011;12670;53.502;10.252;2023-02-14T02:40:46;39.97;;;19.13;;
16119;SDS011;12670;53.502;10.252;2023-02-14T02:43:57;37.33;;;17.93;;
16119;SDS011;12670;53.502;10.252;2023-02-14T02:47:10;39.23;;;17.70;;
16119;SDS011;12670;53.502;10.252;2023-02-14T02:50:21;38.23;;;16.07;;
16119;SDS011;12670;53.502;10.252;2023-02-14T02:53:50;35.20;;;16.97;;
16119;SDS011;12670;53.502;10.252;2023-02-14T02:56:56;36.43;;;16.60;;
16119;SDS011;12670;53.502;10.252;2023-02-14T03:00:03;34.80;;;16.70;;
16119;SDS011;12670;53.502;10.252;2023-02-14T03:03:08;36.03;;;17.17;;
16119;SDS011;12670;53.502;10.252;2023-02-14T03:06:29;37.50;;;17.30;;
16119;SDS011;12670;53.502;10.252;2023-02-14T03:16:33;36.10;;;16.13;;
16119;SDS011;12670;53.502;10.252;2023-02-14T03:19:41;34.03;;;16.73;;
16119;SDS011;12670;53.502;10.252;2023-02-14T03:23:12;36.27;;;17.17;;
16119;SDS011;12670;53.502;10.252;2023-02-14T03:26:25;37.57;;;16.30;;
16119;SDS011;12670;53.502;10.252;2023-02-14T03:29:39;40.77;;;17.57;;
16119;SDS011;12670;53.502;10.252;2023-02-14T03:32:51;38.23;;;16.63;;
16119;SDS011;12670;53.502;10.252;2023-02-14T03:36:02;35.50;;;16.93;;
16119;SDS011;12670;53.502;10.252;2023-02-14T03:39:11;37.90;;;16.87;;
16119;SDS011;12670;53.502;10.252;2023-02-14T03:42:22;32.90;;;15.80;;
16119;SDS011;12670;53.502;10.252;2023-02-14T03:45:28;36.43;;;17.10;;
16119;SDS011;12670;53.502;10.252;2023-02-14T03:48:33;35.13;;;16.17;;
16119;SDS011;12670;53.502;10.252;2023-02-14T03:51:39;36.93;;;16.63;;
16119;SDS011;12670;53.502;10.252;2023-02-14T03:54:43;36.43;;;17.07;;
16119;SDS011;12670;53.502;10.252;2023-02-14T03:57:52;36.27;;;16.67;;
16119;SDS011;12670;53.502;10.252;2023-02-14T04:01:02;36.63;;;16.90;;
16119;SDS011;12670;53.502;10.252;2023-02-14T04:04:08;36.47;;;17.43;;
16119;SDS011;12670;53.502;10.252;2023-02-14T04:07:14;41.10;;;18.67;;
16119;SDS011;12670;53.502;10.252;2023-02-14T04:10:19;40.33;;;17.70;;
16119;SDS011;12670;53.502;10.252;2023-02-14T04:13:24;40.97;;;18.23;;
16119;SDS011;12670;53.502;10.252;2023-02-14T04:16:26;37.63;;;17.70;;
16119;SDS011;12670;53.502;10.252;2023-02-14T04:19:30;39.67;;;18.27;;
16119;SDS011;12670;53.502;10.252;2023-02-14T04:22:32;37.77;;;17.43;;
16119;SDS011;12670;53.502;10.252;2023-02-14T04:25:34;45.27;;;18.77;;
16119;SDS011;12670;53.502;10.252;2023-02-14T04:28:40;43.53;;;19.13;;
16119;SDS011;12670;53.502;10.252;2023-02-14T04:31:43;41.97;;;19.33;;
16119;SDS011;12670;53.502;10.252;2023-02-14T04:34:46;44.57;;;19.20;;
16119;SDS011;12670;53.502;10.252;2023-02-14T04:37:49;44.60;;;20.27;;
16119;SDS011;12670;53.502;10.252;2023-02-14T04:40:51;48.47;;;20.47;;
16119;SDS011;12670;53.502;10.252;2023-02-14T04:43:55;42.87;;;19.33;;
16119;SDS011;12670;53.502;10.252;2023-02-14T04:46:58;44.83;;;20.53;;
16119;SDS011;12670;53.502;10.252;2023-02-14T04:50:01;44.60;;;19.83;;
16119;SDS011;12670;53.502;10.252;2023-02-14T04:53:04;46.33;;;20.40;;
16119;SDS011;12670;53.502;10.252;2023-02-14T04:56:07;44.10;;;19.77;;
16119;SDS011;12670;53.502;10.252;2023-02-14T04:59:11;42.13;;;19.13;;
16119;SDS011;12670;53.502;10.252;2023-02-14T05:02:14;39.87;;;18.43;;
16119;SDS011;12670;53.502;10.252;2023-02-14T05:05:17;46.27;;;19.50;;
16119;SDS011;12670;53.502;10.252;2023-02-14T05:08:20;43.33;;;19.90;;
16119;SDS011;12670;53.502;10.252;2023-02-14T05:11:22;42.20;;;18.87;;
16119;SDS011;12670;53.502;10.252;2023-02-14T05:14:26;40.23;;;19.23;;
16119;SDS011;12670;53.502;10.252;2023-02-14T05:17:29;38.60;;;18.43;;
16119;SDS011;12670;53.502;10.252;2023-02-14T05:20:32;43.03;;;18.97;;
16119;SDS011;12670;53.502;10.252;2023-02-14T05:23:34;43.67;;;19.67;;
16119;SDS011;12670;53.502;10.252;2023-02-14T05:26:37;40.27;;;19.00;;
16119;SDS011;12670;53.502;10.252;2023-02-14T05:29:42;43.13;;;19.00;;
16119;SDS011;12670;53.502;10.252;2023-02-14T05:32:45;43.83;;;18.87;;
16119;SDS011;12670;53.502;10.252;2023-02-14T05:35:47;38.27;;;18.57;;
16119;SDS011;12670;53.502;10.252;2023-02-14T05:38:50;41.23;;;18.03;;
16119;SDS011;12670;53.502;10.252;2023-02-14T05:41:53;42.20;;;19.00;;
16119;SDS011;12670;53.502;10.252;2023-02-14T05:45:00;40.60;;;17.83;;
16119;SDS011;12670;53.502;10.252;2023-02-14T05:48:03;41.03;;;17.67;;
16119;SDS011;12670;53.502;10.252;2023-02-14T05:51:07;37.63;;;18.03;;
16119;SDS011;12670;53.502;10.252;2023-02-14T05:54:11;37.77;;;17.57;;
16119;SDS011;12670;53.502;10.252;2023-02-14T05:57:14;40.97;;;18.30;;
16119;SDS011;12670;53.502;10.252;2023-02-14T06:00:19;34.27;;;16.97;;
16119;SDS011;12670;53.502;10.252;2023-02-14T06:03:22;38.77;;;18.20;;
16119;SDS011;12670;53.502;10.252;2023-02-14T06:06:25;42.40;;;19.87;;
16119;SDS011;12670;53.502;10.252;2023-02-14T06:09:28;42.10;;;18.77;;
16119;SDS011;12670;53.502;10.252;2023-02-14T06:12:30;45.60;;;19.60;;
16119;SDS011;12670;53.502;10.252;2023-02-14T06:15:34;45.00;;;19.63;;
16119;SDS011;12670;53.502;10.252;2023-02-14T06:18:37;45.73;;;19.93;;
16119;SDS011;12670;53.502;10.252;2023-02-14T06:21:40;42.17;;;19.90;;
16119;SDS011;12670;53.502;10.252;2023-02-14T06:24:42;43.37;;;19.80;;
16119;SDS011;12670;53.502;10.252;2023-02-14T06:27:45;48.47;;;20.27;;
16119;SDS011;12670;53.502;10.252;2023-02-14T06:30:51;47.67;;;20.77;;
16119;SDS011;12670;53.502;10.252;2023-02-14T06:33:54;49.90;;;20.17;;
16119;SDS011;12670;53.502;10.252;2023-02-14T06:36:57;43.43;;;19.93;;
16119;SDS011;12670;53.502;10.252;2023-02-14T06:39:59;47.27;;;20.17;;
16119;SDS011;12670;53.502;10.252;2023-02-14T06:43:02;49.10;;;21.10;;
16119;SDS011;12670;53.502;10.252;2023-02-14T06:46:06;45.07;;;21.23;;
16119;SDS011;12670;53.502;10.252;2023-02-14T06:49:09;44.63;;;21.40;;
16119;SDS011;12670;53.502;10.252;2023-02-14T06:52:12;49.10;;;21.20;;
16119;SDS011;12670;53.502;10.252;2023-02-14T06:55:14;49.87;;;21.17;;
16119;SDS011;12670;53.502;10.252;2023-02-14T06:58:17;43.33;;;20.40;;
16119;SDS011;12670;53.502;10.252;2023-02-14T07:01:21;44.07;;;20.23;;
16119;SDS011;12670;53.502;10.252;2023-02-14T07:04:24;50.87;;;20.60;;
16119;SDS011;12670;53.502;10.252;2023-02-14T07:07:26;46.87;;;21.00;;
16119;SDS011;12670;53.502;10.252;2023-02-14T07:10:29;45.90;;;20.87;;
16119;SDS011;12670;53.502;10.252;2023-02-14T07:13:33;47.10;;;20.63;;
16119;SDS011;12670;53.502;10.252;2023-02-14T07:16:37;46.70;;;20.77;;
16119;SDS011;12670;53.502;10.252;2023-02-14T07:19:40;42.20;;;19.80;;
16119;SDS011;12670;53.502;10.252;2023-02-14T07:22:42;44.43;;;20.50;;
16119;SDS011;12670;53.502;10.252;2023-02-14T07:25:45;43.73;;;20.17;;
16119;SDS011;12670;53.502;10.252;2023-02-14T07:28:48;43.13;;;20.40;;
16119;SDS011;12670;53.502;10.252;2023-02-14T07:31:53;40.73;;;19.10;;
16119;SDS011;12670;53.502;10.252;2023-02-14T07:34:55;40.90;;;19.47;;
16119;SDS011;12670;53.502;10.252;2023-02-14T07:37:58;43.53;;;19.93;;
16119;SDS011;12670;53.502;10.252;2023-02-14T07:41:01;40.07;;;18.93;;
16119;SDS011;12670;53.502;10.252;2023-02-14T07:44:04;38.97;;;18.00;;
16119;SDS011;12670;53.502;10.252;2023-02-14T07:47:08;40.73;;;17.90;;
16119;SDS011;12670;53.502;10.252;2023-02-14T07:50:11;42.70;;;19.73;;
16119;SDS011;12670;53.502;10.252;2023-02-14T07:53:14;40.57;;;19.50;;
16119;SDS011;12670;53.502;10.252;2023-02-14T07:56:16;40.70;;;19.00;;
16119;SDS011;12670;53.502;10.252;2023-02-14T07:59:19;40.13;;;18.50;;
16119;SDS011;12670;53.502;10.252;2023-02-14T08:02:25;41.13;;;19.33;;
16119;SDS011;12670;53.502;10.252;2023-02-14T08:05:27;37.77;;;18.07;;
16119;SDS011;12670;53.502;10.252;2023-02-14T08:08:30;41.67;;;18.10;;
16119;SDS011;12670;53.502;10.252;2023-02-14T08:11:33;37.43;;;17.17;;
16119;SDS011;12670;53.502;10.252;2023-02-14T08:14:53;39.23;;;17.50;;
16119;SDS011;12670;53.502;10.252;2023-02-14T08:18:17;41.77;;;18.30;;
16119;SDS011;12670;53.502;10.252;2023-02-14T08:21:21;41.70;;;17.40;;
16119;SDS011;12670;53.502;10.252;2023-02-14T08:24:24;33.20;;;16.23;;
16119;SDS011;12670;53.502;10.252;2023-02-14T08:27:26;36.13;;;16.80;;
16119;SDS011;12670;53.502;10.252;2023-02-14T08:30:30;39.13;;;17.93;;
16119;SDS011;12670;53.502;10.252;2023-02-14T08:33:34;38.10;;;16.30;;
16119;SDS011;12670;53.502;10.252;2023-02-14T08:36:37;35.10;;;17.43;;
16119;SDS011;12670;53.502;10.252;2023-02-14T08:39:40;32.87;;;17.33;;
16119;SDS011;12670;53.502;10.252;2023-02-14T08:42:42;33.97;;;16.07;;
16119;SDS011;12670;53.502;10.252;2023-02-14T08:45:45;32.20;;;16.03;;
16119;SDS011;12670;53.502;10.252;2023-02-14T08:48:49;36.13;;;16.57;;
16119;SDS011;12670;53.502;10.252;2023-02-14T08:51:53;31.67;;;15.30;;
16119;SDS011;12670;53.502;10.252;2023-02-14T08:54:56;32.77;;;15.97;;
16119;SDS011;12670;53.502;10.252;2023-02-14T08:57:59;37.60;;;16.70;;
16119;SDS011;12670;53.502;10.252;2023-02-14T09:01:06;29.80;;;15.17;;
16119;SDS011;12670;53.502;10.252;2023-02-14T09:04:11;28.03;;;14.37;;
16119;SDS011;12670;53.502;10.252;2023-02-14T09:07:13;29.73;;;15.13;;
16119;SDS011;12670;53.502;10.252;2023-02-14T09:10:16;31.13;;;15.57;;
16119;SDS011;12670;53.502;10.252;2023-02-14T09:13:19;29.23;;;15.00;;
16119;SDS011;12670;53.502;10.252;2023-02-14T09:16:23;29.63;;;15.13;;
16119;SDS011;12670;53.502;10.252;2023-02-14T09:19:30;28.77;;;14.93;;
16119;SDS011;12670;53.502;10.252;2023-02-14T09:22:33;34.23;;;16.13;;
16119;SDS011;12670;53.502;10.252;2023-02-14T09:25:35;32.50;;;15.37;;
16119;SDS011;12670;53.502;10.252;2023-02-14T09:28:38;32.00;;;14.90;;
16119;SDS011;12670;53.502;10.252;2023-02-14T09:31:41;29.77;;;15.00;;
16119;SDS011;12670;53.502;10.252;2023-02-14T09:34:45;34.30;;;15.83;;
16119;SDS011;12670;53.502;10.252;2023-02-14T09:37:48;31.03;;;15.30;;
16119;SDS011;12670;53.502;10.252;2023-02-14T09:41:09;31.37;;;15.40;;
16119;SDS011;12670;53.502;10.252;2023-02-14T09:44:25;31.50;;;16.07;;
16119;SDS011;12670;53.502;10.252;2023-02-14T09:47:34;32.23;;;15.03;;
16119;SDS011;12670;53.502;10.252;2023-02-14T09:50:45;29.97;;;15.83;;
16119;SDS011;12670;53.502;10.252;2023-02-14T09:53:51;29.63;;;15.77;;
16119;SDS011;12670;53.502;10.252;2023-02-14T09:57:00;28.17;;;15.37;;
16119;SDS011;12670;53.502;10.252;2023-02-14T10:00:12;32.27;;;15.40;;
16119;SDS011;12670;53.502;10.252;2023-02-14T10:03:31;30.20;;;15.17;;
16119;SDS011;12670;53.502;10.252;2023-02-14T10:06:47;28.73;;;15.43;;
16119;SDS011;12670;53.502;10.252;2023-02-14T10:09:53;31.87;;;15.70;;
16119;SDS011;12670;53.502;10.252;2023-02-14T10:13:02;26.90;;;14.77;;
16119;SDS011;12670;53.502;10.252;2023-02-14T10:16:10;29.80;;;14.90;;
16119;SDS011;12670;53.502;10.252;2023-02-14T10:19:20;26.50;;;15.27;;
16119;SDS011;12670;53.502;10.252;2023-02-14T10:22:30;25.83;;;15.07;;
16119;SDS011;12670;53.502;10.252;2023-02-14T10:25:43;29.23;;;15.47;;
16119;SDS011;12670;53.502;10.252;2023-02-14T10:28:53;25.83;;;14.63;;
16119;SDS011;12670;53.502;10.252;2023-02-14T10:31:57;26.17;;;14.37;;
16119;SDS011;12670;53.502;10.252;2023-02-14T10:35:02;25.90;;;15.20;;
16119;SDS011;12670;53.502;10.252;2023-02-14T10:38:13;25.53;;;13.53;;
16119;SDS011;12670;53.502;10.252;2023-02-14T10:41:30;23.13;;;13.87;;
16119;SDS011;12670;53.502;10.252;2023-02-14T10:44:44;23.20;;;13.20;;
16119;SDS011;12670;53.502;10.252;2023-02-14T10:47:57;24.70;;;13.90;;
16119;SDS011;12670;53.502;10.252;2023-02-14T10:51:11;24.00;;;14.07;;
16119;SDS011;12670;53.502;10.252;2023-02-14T10:54:19;25.70;;;13.83;;
16119;SDS011;12670;53.502;10.252;2023-02-14T10:57:27;22.40;;;13.17;;
16119;SDS011;12670;53.502;10.252;2023-02-14T11:00:33;23.53;;;14.10;;
16119;SDS011;12670;53.502;10.252;2023-02-14T11:03:39;26.70;;;14.93;;
16119;SDS011;12670;53.502;10.252;2023-02-14T11:06:44;23.83;;;14.10;;
16119;SDS011;12670;53.502;10.252;2023-02-14T11:09:50;22.30;;;13.40;;
16119;SDS011;12670;53.502;10.252;2023-02-14T11:12:53;23.17;;;14.00;;
16119;SDS011;12670;53.502;10.252;2023-02-14T11:15:57;21.67;;;13.37;;
16119;SDS011;12670;53.502;10.252;2023-02-14T11:19:06;27.07;;;15.50;;
16119;SDS011;12670;53.502;10.252;2023-02-14T11:22:10;27.97;;;15.33;;
16119;SDS011;12670;53.502;10.252;2023-02-14T11:25:31;22.40;;;14.15;;
16119;SDS011;12670;53.502;10.252;2023-02-14T11:28:37;27.55;;;15.63;;
16119;SDS011;12670;53.502;10.252;2023-02-14T11:31:50;23.23;;;14.65;;
16119;SDS011;12670;53.502;10.252;2023-02-14T11:34:53;24.60;;;14.40;;
16119;SDS011;12670;53.502;10.252;2023-02-14T11:38:01;26.33;;;15.90;;
16119;SDS011;12670;53.502;10.252;2023-02-14T11:41:08;23.13;;;15.02;;
16119;SDS011;12670;53.502;10.252;2023-02-14T11:44:14;26.13;;;15.18;;
16119;SDS011;12670;53.502;10.252;2023-02-14T11:47:25;23.45;;;14.18;;
16119;SDS011;12670;53.502;10.252;2023-02-14T11:50:29;29.05;;;15.15;;
16119;SDS011;12670;53.502;10.252;2023-02-14T11:53:35;23.15;;;14.30;;
16119;SDS011;12670;53.502;10.252;2023-02-14T11:56:47;24.23;;;14.13;;
16119;SDS011;12670;53.502;10.252;2023-02-14T11:59:54;23.63;;;14.70;;
16119;SDS011;12670;53.502;10.252;2023-02-14T12:02:58;22.30;;;13.27;;
16119;SDS011;12670;53.502;10.252;2023-02-14T12:06:04;26.47;;;15.03;;
16119;SDS011;12670;53.502;10.252;2023-02-14T12:09:11;26.17;;;15.40;;
16119;SDS011;12670;53.502;10.252;2023-02-14T12:12:26;25.93;;;15.03;;
16119;SDS011;12670;53.502;10.252;2023-02-14T12:15:30;26.07;;;15.03;;
16119;SDS011;12670;53.502;10.252;2023-02-14T12:18:49;28.10;;;15.67;;
16119;SDS011;12670;53.502;10.252;2023-02-14T12:21:57;27.00;;;15.13;;
16119;SDS011;12670;53.502;10.252;2023-02-14T12:25:05;26.63;;;15.23;;
16119;SDS011;12670;53.502;10.252;2023-02-14T12:28:18;29.03;;;15.93;;
16119;SDS011;12670;53.502;10.252;2023-02-14T12:31:25;26.70;;;14.53;;
16119;SDS011;12670;53.502;10.252;2023-02-14T12:34:28;26.77;;;15.37;;
16119;SDS011;12670;53.502;10.252;2023-02-14T12:37:35;26.13;;;15.33;;
16119;SDS011;12670;53.502;10.252;2023-02-14T12:40:58;26.37;;;15.17;;
16119;SDS011;12670;53.502;10.252;2023-02-14T12:44:13;27.00;;;15.97;;
16119;SDS011;12670;53.502;10.252;2023-02-14T12:47:27;30.50;;;15.13;;
16119;SDS011;12670;53.502;10.252;2023-02-14T12:50:40;29.17;;;16.30;;
16119;SDS011;12670;53.502;10.252;2023-02-14T12:53:54;27.60;;;15.23;;
16119;SDS011;12670;53.502;10.252;2023-02-14T12:57:04;30.60;;;15.50;;
16119;SDS011;12670;53.502;10.252;2023-02-14T13:00:25;25.17;;;14.80;;
16119;SDS011;12670;53.502;10.252;2023-02-14T13:03:42;26.00;;;15.17;;
16119;SDS011;12670;53.502;10.252;2023-02-14T13:07:07;27.20;;;15.87;;
16119;SDS011;12670;53.502;10.252;2023-02-14T13:10:22;32.77;;;14.70;;
16119;SDS011;12670;53.502;10.252;2023-02-14T13:13:38;27.47;;;14.70;;
16119;SDS011;12670;53.502;10.252;2023-02-14T13:16:53;22.60;;;14.65;;
16119;SDS011;12670;53.502;10.252;2023-02-14T13:20:03;24.15;;;15.20;;
16119;SDS011;12670;53.502;10.252;2023-02-14T13:23:19;28.10;;;15.50;;
16119;SDS011;12670;53.502;10.252;2023-02-14T13:26:28;24.30;;;14.65;;
16119;SDS011;12670;53.502;10.252;2023-02-14T13:29:36;28.17;;;15.63;;
16119;SDS011;12670;53.502;10.252;2023-02-14T13:32:47;22.90;;;14.60;;
16119;SDS011;12670;53.502;10.252;2023-02-14T13:35:55;23.58;;;14.85;;
16119;SDS011;12670;53.502;10.252;2023-02-14T13:39:01;23.60;;;14.15;;
16119;SDS011;12670;53.502;10.252;2023-02-14T13:42:05;25.58;;;14.82;;
16119;SDS011;12670;53.502;10.252;2023-02-14T13:45:11;21.52;;;14.77;;
16119;SDS011;12670;53.502;10.252;2023-02-14T13:48:57;23.83;;;14.68;;
16119;SDS011;12670;53.502;10.252;2023-02-14T13:52:02;22.42;;;14.10;;
16119;SDS011;12670;53.502;10.252;2023-02-14T13:55:07;23.35;;;14.70;;
16119;SDS011;12670;53.502;10.252;2023-02-14T13:58:16;25.38;;;14.68;;
16119;SDS011;12670;53.502;10.252;2023-02-14T14:01:28;22.30;;;14.43;;
16119;SDS011;12670;53.502;10.252;2023-02-14T14:04:36;23.60;;;14.68;;
16119;SDS011;12670;53.502;10.252;2023-02-14T14:07:39;22.40;;;14.93;;
16119;SDS011;12670;53.502;10.252;2023-02-14T14:10:42;24.70;;;14.75;;
16119;SDS011;12670;53.502;10.252;2023-02-14T14:13:56;22.98;;;14.85;;
16119;SDS011;12670;53.502;10.252;2023-02-14T14:16:59;25.53;;;15.60;;
16119;SDS011;12670;53.502;10.252;2023-02-14T14:23:41;32.17;;;16.67;;
16119;SDS011;12670;53.502;10.252;2023-02-14T14:26:44;24.40;;;14.90;;
16119;SDS011;12670;53.502;10.252;2023-02-14T14:29:49;23.77;;;14.30;;
16119;SDS011;12670;53.502;10.252;2023-02-14T14:32:53;22.57;;;13.90;;
16119;SDS011;12670;53.502;10.252;2023-02-14T14:35:58;24.63;;;14.53;;
16119;SDS011;12670;53.502;10.252;2023-02-14T14:39:03;25.23;;;15.23;;
16119;SDS011;12670;53.502;10.252;2023-02-14T14:42:06;25.80;;;14.43;;
16119;SDS011;12670;53.502;10.252;2023-02-14T14:45:17;25.93;;;15.27;;
16119;SDS011;12670;53.502;10.252;2023-02-14T14:48:26;28.40;;;15.90;;
16119;SDS011;12670;53.502;10.252;2023-02-14T14:51:33;23.37;;;14.10;;
16119;SDS011;12670;53.502;10.252;2023-02-14T14:54:36;26.97;;;14.00;;
16119;SDS011;12670;53.502;10.252;2023-02-14T14:57:40;26.90;;;14.77;;
16119;SDS011;12670;53.502;10.252;2023-02-14T15:00:50;23.80;;;14.47;;
16119;SDS011;12670;53.502;10.252;2023-02-14T15:03:53;26.17;;;15.20;;
16119;SDS011;12670;53.502;10.252;2023-02-14T15:10:22;30.67;;;15.10;;
16119;SDS011;12670;53.502;10.252;2023-02-14T15:13:29;25.57;;;14.83;;
16119;SDS011;12670;53.502;10.252;2023-02-14T15:16:51;24.17;;;14.17;;
16119;SDS011;12670;53.502;10.252;2023-02-14T15:19:58;24.90;;;14.87;;
16119;SDS011;12670;53.502;10.252;2023-02-14T15:23:05;25.30;;;14.87;;
16119;SDS011;12670;53.502;10.252;2023-02-14T15:26:09;28.13;;;16.60;;
16119;SDS011;12670;53.502;10.252;2023-02-14T15:29:20;31.03;;;15.77;;
16119;SDS011;12670;53.502;10.252;2023-02-14T15:32:24;25.70;;;14.60;;
16119;SDS011;12670;53.502;10.252;2023-02-14T15:35:32;26.60;;;14.67;;
16119;SDS011;12670;53.502;10.252;2023-02-14T15:38:39;27.13;;;15.13;;
16119;SDS011;12670;53.502;10.252;2023-02-14T15:41:43;30.07;;;15.13;;
16119;SDS011;12670;53.502;10.252;2023-02-14T15:44:46;28.10;;;15.17;;
16119;SDS011;12670;53.502;10.252;2023-02-14T15:47:49;27.83;;;15.07;;
16119;SDS011;12670;53.502;10.252;2023-02-14T15:50:54;28.47;;;15.57;;
16119;SDS011;12670;53.502;10.252;2023-02-14T15:54:02;31.73;;;15.53;;
16119;SDS011;12670;53.502;10.252;2023-02-14T15:57:15;29.13;;;15.70;;
16119;SDS011;12670;53.502;10.252;2023-02-14T16:00:22;28.50;;;15.63;;
16119;SDS011;12670;53.502;10.252;2023-02-14T16:03:27;28.03;;;15.30;;
16119;SDS011;12670;53.502;10.252;2023-02-14T16:06:35;30.60;;;14.83;;
16119;SDS011;12670;53.502;10.252;2023-02-14T16:09:40;29.33;;;15.57;;
16119;SDS011;12670;53.502;10.252;2023-02-14T16:12:43;27.70;;;15.27;;
16119;SDS011;12670;53.502;10.252;2023-02-14T16:15:58;28.57;;;14.93;;
16119;SDS011;12670;53.502;10.252;2023-02-14T16:19:02;28.43;;;15.07;;
16119;SDS011;12670;53.502;10.252;2023-02-14T16:22:05;30.38;;;16.83;;
16119;SDS011;12670;53.502;10.252;2023-02-14T16:25:10;31.30;;;15.50;;
16119;SDS011;12670;53.502;10.252;2023-02-14T16:28:13;29.63;;;15.33;;
16119;SDS011;12670;53.502;10.252;2023-02-14T16:31:16;28.30;;;15.17;;
16119;SDS011;12670;53.502;10.252;2023-02-14T16:34:20;28.37;;;14.47;;
16119;SDS011;12670;53.502;10.252;2023-02-14T16:37:23;32.53;;;15.57;;
16119;SDS011;12670;53.502;10.252;2023-02-14T16:40:30;28.00;;;14.83;;
16119;SDS011;12670;53.502;10.252;2023-02-14T16:43:33;33.00;;;15.90;;
16119;SDS011;12670;53.502;10.252;2023-02-14T16:46:36;28.20;;;14.40;;
16119;SDS011;12670;53.502;10.252;2023-02-14T16:49:38;28.83;;;14.67;;
16119;SDS011;12670;53.502;10.252;2023-02-14T16:52:42;29.90;;;15.07;;
16119;SDS011;12670;53.502;10.252;2023-02-14T16:55:52;31.43;;;14.80;;
16119;SDS011;12670;53.502;10.252;2023-02-14T16:58:56;48.10;;;16.67;;
16119;SDS011;12670;53.502;10.252;2023-02-14T17:01:58;33.17;;;15.33;;
16119;SDS011;12670;53.502;10.252;2023-02-14T17:05:02;33.33;;;15.83;;
16119;SDS011;12670;53.502;10.252;2023-02-14T17:08:05;30.77;;;15.17;;
16119;SDS011;12670;53.502;10.252;2023-02-14T17:11:12;29.93;;;15.97;;
16119;SDS011;12670;53.502;10.252;2023-02-14T17:14:16;29.03;;;15.87;;
16119;SDS011;12670;53.502;10.252;2023-02-14T17:17:23;31.53;;;15.73;;
16119;SDS011;12670;53.502;10.252;2023-02-14T17:20:26;33.70;;;16.67;;
16119;SDS011;12670;53.502;10.252;2023-02-14T17:23:30;27.73;;;14.57;;
16119;SDS011;12670;53.502;10.252;2023-02-14T17:26:34;31.13;;;15.17;;
16119;SDS011;12670;53.502;10.252;2023-02-14T17:29:38;28.47;;;14.77;;
16119;SDS011;12670;53.502;10.252;2023-02-14T17:32:40;32.47;;;14.70;;
16119;SDS011;12670;53.502;10.252;2023-02-14T17:35:44;31.70;;;15.57;;
16119;SDS011;12670;53.502;10.252;2023-02-14T17:38:46;29.63;;;14.73;;
16119;SDS011;12670;53.502;10.252;2023-02-14T17:41:51;31.07;;;15.53;;
16119;SDS011;12670;53.502;10.252;2023-02-14T17:44:53;31.60;;;15.17;;
16119;SDS011;12670;53.502;10.252;2023-02-14T17:47:56;38.77;;;16.10;;
16119;SDS011;12670;53.502;10.252;2023-02-14T17:51:01;31.53;;;15.03;;
16119;SDS011;12670;53.502;10.252;2023-02-14T17:54:05;32.83;;;15.87;;
16119;SDS011;12670;53.502;10.252;2023-02-14T17:57:09;32.27;;;15.63;;
16119;SDS011;12670;53.502;10.252;2023-02-14T18:00:13;31.37;;;15.53;;
16119;SDS011;12670;53.502;10.252;2023-02-14T18:03:17;31.40;;;16.07;;
16119;SDS011;12670;53.502;10.252;2023-02-14T18:06:20;30.00;;;14.57;;
16119;SDS011;12670;53.502;10.252;2023-02-14T18:09:23;40.80;;;15.90;;
16119;SDS011;12670;53.502;10.252;2023-02-14T18:12:27;32.03;;;15.63;;
16119;SDS011;12670;53.502;10.252;2023-02-14T18:15:30;36.17;;;17.73;;
16119;SDS011;12670;53.502;10.252;2023-02-14T18:18:32;32.87;;;16.20;;
16119;SDS011;12670;53.502;10.252;2023-02-14T18:21:36;32.80;;;15.43;;
16119;SDS011;12670;53.502;10.252;2023-02-14T18:24:40;27.97;;;15.37;;